Time;durP1;ratioP1;P1;durP2;ratioP2;P2;SDS_P1;SDS_P2;PMS_P1;PMS_P2;Temp;Humidity;BMP_temperature;BMP_pressure;BME280_temperature;BME280_humidity;BME280_pressure;Samples;Min_cycle;Max_cycle;Signal;HPM_P1;HPM_P2
2023/08/08 00:01:56;;;;;;;4.13;0.68;;;22.50;1.00;;;;;;4941847;29;20036;-44
2023/08/08 00:04:24;;;;;;;2.75;0.93;;;22.50;1.00;;;;;;4925308;29;20051;-44
2023/08/08 00:06:51;;;;;;;2.72;0.93;;;22.50;1.00;;;;;;4933583;29;20079;-43
2023/08/08 00:09:17;;;;;;;6.20;1.20;;;22.40;1.00;;;;;;4930839;29;20052;-44
2023/08/08 00:11:44;;;;;;;5.00;1.30;;;22.40;1.00;;;;;;4936649;29;20054;-43
2023/08/08 00:14:11;;;;;;;4.63;0.80;;;22.40;1.00;;;;;;4924651;29;20075;-41
2023/08/08 00:16:38;;;;;;;4.22;1.13;;;22.40;1.00;;;;;;4941192;29;20044;-42
2023/08/08 00:19:05;;;;;;;2.03;0.90;;;22.40;1.00;;;;;;4924280;29;20039;-41
2023/08/08 00:21:32;;;;;;;2.40;0.93;;;22.40;1.00;;;;;;4941243;29;20518;-43
2023/08/08 00:23:58;;;;;;;2.30;0.80;;;22.40;1.00;;;;;;4924786;29;20139;-43
2023/08/08 00:26:25;;;;;;;3.92;1.45;;;22.40;1.00;;;;;;4933001;29;20122;-42
2023/08/08 00:28:52;;;;;;;2.35;0.95;;;22.40;1.00;;;;;;4940852;29;20052;-42
2023/08/08 00:31:19;;;;;;;2.45;0.98;;;22.40;1.00;;;;;;4924146;29;20062;-43
2023/08/08 00:33:46;;;;;;;3.00;0.82;;;22.40;1.00;;;;;;4940891;29;20040;-42
2023/08/08 00:36:13;;;;;;;3.60;1.10;;;22.40;1.00;;;;;;4938934;29;20039;-41
2023/08/08 00:38:40;;;;;;;2.58;0.88;;;22.40;1.00;;;;;;4935515;29;20047;-42
2023/08/08 00:41:07;;;;;;;4.75;0.90;;;22.40;1.00;;;;;;4938956;29;20563;-40
2023/08/08 00:43:34;;;;;;;1.85;0.80;;;22.40;1.00;;;;;;4941046;29;20051;-42
2023/08/08 00:46:01;;;;;;;2.97;1.42;;;22.40;1.00;;;;;;4932706;29;20051;-43
2023/08/08 00:48:28;;;;;;;1.88;1.08;;;22.30;1.00;;;;;;4941106;29;20279;-41
2023/08/08 00:50:55;;;;;;;1.23;0.82;;;22.40;1.00;;;;;;4923730;29;20471;-46
2023/08/08 00:53:28;;;;;;;1.83;0.88;;;22.40;1.00;;;;;;4924512;29;20066;-41
2023/08/08 00:55:55;;;;;;;2.15;0.85;;;22.30;1.00;;;;;;4916883;29;20052;-42
2023/08/08 00:58:22;;;;;;;1.75;0.82;;;22.40;1.00;;;;;;4923082;29;20056;-44
2023/08/08 01:00:48;;;;;;;4.72;1.10;;;22.30;1.00;;;;;;4941341;29;20072;-42
2023/08/08 01:03:15;;;;;;;3.67;0.70;;;22.30;1.00;;;;;;4916062;29;20381;-43
2023/08/08 01:05:50;;;;;;;3.05;0.80;;;22.30;1.00;;;;;;4923633;29;20052;-47
2023/08/08 01:08:22;;;;;;;3.20;0.65;;;22.30;1.00;;;;;;4940298;29;20090;-41
2023/08/08 01:10:49;;;;;;;2.50;0.80;;;22.30;1.00;;;;;;4920037;29;20044;-41
2023/08/08 01:13:23;;;;;;;6.63;0.80;;;22.30;1.00;;;;;;4940785;29;20040;-49
2023/08/08 01:15:53;;;;;;;2.75;0.68;;;22.30;1.00;;;;;;4925131;29;20044;-41
2023/08/08 01:18:20;;;;;;;3.55;0.50;;;22.30;1.00;;;;;;4941364;29;20512;-43
2023/08/08 01:20:50;;;;;;;1.20;0.65;;;22.30;1.00;;;;;;4924796;29;20075;-41
2023/08/08 01:23:53;;;;;;;4.55;0.95;;;22.30;1.00;;;;;;4917646;29;20044;-42
2023/08/08 01:26:22;;;;;;;4.45;0.68;;;22.30;1.00;;;;;;4910333;29;20054;-45
2023/08/08 01:28:52;;;;;;;2.22;0.60;;;22.30;1.00;;;;;;4919871;29;20504;-43
2023/08/08 01:31:19;;;;;;;1.85;0.80;;;22.30;1.00;;;;;;4942597;29;20048;-42
2023/08/08 01:33:47;;;;;;;1.27;0.60;;;22.30;1.00;;;;;;4942157;29;20044;-42
2023/08/08 01:36:22;;;;;;;1.30;0.50;;;22.30;1.00;;;;;;4924756;29;20119;-44
2023/08/08 01:38:52;;;;;;;2.97;1.00;;;22.30;1.00;;;;;;4942014;29;20107;-42
2023/08/08 01:41:21;;;;;;;1.98;1.23;;;22.30;1.00;;;;;;4924808;29;20050;-44
2023/08/08 01:43:48;;;;;;;3.00;0.75;;;22.20;1.00;;;;;;4919118;29;20084;-42
2023/08/08 01:46:15;;;;;;;3.15;1.20;;;22.20;1.00;;;;;;4930429;29;20044;-45
2023/08/08 01:48:46;;;;;;;2.33;0.60;;;22.20;1.00;;;;;;4917607;29;20146;-43
2023/08/08 01:51:13;;;;;;;2.08;0.80;;;22.20;1.00;;;;;;4917789;29;20055;-42
2023/08/08 01:53:40;;;;;;;3.35;0.90;;;22.20;1.00;;;;;;4920974;29;20319;-44
2023/08/08 01:56:08;;;;;;;2.40;0.65;;;22.20;1.00;;;;;;4937218;29;20094;-43
2023/08/08 01:58:36;;;;;;;3.13;0.82;;;22.20;1.00;;;;;;4924084;29;20054;-42
2023/08/08 02:01:03;;;;;;;1.80;0.55;;;22.20;1.00;;;;;;4924043;29;20095;-42
2023/08/08 02:03:29;;;;;;;1.92;0.68;;;22.20;1.00;;;;;;4927777;29;20054;-42
2023/08/08 02:05:56;;;;;;;3.03;0.90;;;22.20;1.00;;;;;;4920333;29;20054;-41
2023/08/08 02:08:24;;;;;;;4.07;0.90;;;22.20;1.00;;;;;;4928174;29;20507;-42
2023/08/08 02:10:51;;;;;;;2.17;1.15;;;22.20;1.00;;;;;;4937682;29;20123;-43
2023/08/08 02:13:18;;;;;;;3.38;0.80;;;22.20;1.00;;;;;;4943249;29;20044;-42
2023/08/08 02:15:45;;;;;;;5.60;0.75;;;22.20;1.00;;;;;;4933478;29;20059;-42
2023/08/08 02:18:12;;;;;;;2.17;0.60;;;22.20;1.00;;;;;;4917630;29;20048;-42
2023/08/08 02:20:39;;;;;;;4.72;0.88;;;22.20;1.00;;;;;;4919962;29;20032;-42
2023/08/08 02:23:06;;;;;;;1.45;1.08;;;22.20;1.00;;;;;;4920271;29;20523;-41
2023/08/08 02:25:33;;;;;;;2.28;0.45;;;22.20;1.00;;;;;;4945541;29;20050;-42
2023/08/08 02:28:00;;;;;;;2.00;0.63;;;22.20;1.00;;;;;;4919937;29;20040;-42
2023/08/08 02:30:26;;;;;;;1.58;0.68;;;22.10;1.00;;;;;;4920034;29;20044;-42
2023/08/08 02:32:53;;;;;;;2.35;0.73;;;22.10;1.00;;;;;;4927514;29;20047;-42
2023/08/08 02:35:20;;;;;;;2.67;1.00;;;22.10;1.00;;;;;;4928070;29;20440;-41
2023/08/08 02:37:47;;;;;;;2.97;1.08;;;22.10;1.00;;;;;;4944517;29;20459;-41
2023/08/08 02:40:14;;;;;;;1.58;0.52;;;22.10;1.00;;;;;;4928880;29;20068;-41
2023/08/08 02:42:41;;;;;;;3.47;0.80;;;22.10;1.00;;;;;;4927296;29;20451;-42
2023/08/08 02:45:08;;;;;;;4.00;0.85;;;22.10;1.00;;;;;;4926210;29;20052;-45
2023/08/08 02:47:35;;;;;;;3.33;0.65;;;22.10;1.00;;;;;;4916025;29;20051;-42
2023/08/08 02:50:02;;;;;;;1.02;0.68;;;22.10;1.00;;;;;;4944528;29;20052;-43
2023/08/08 02:52:29;;;;;;;1.48;0.65;;;22.10;1.00;;;;;;4926619;29;20052;-44
2023/08/08 02:54:56;;;;;;;2.45;1.05;;;22.10;1.00;;;;;;4927802;29;20450;-45
2023/08/08 02:57:24;;;;;;;3.40;0.55;;;22.10;1.00;;;;;;4944489;29;20107;-42
2023/08/08 02:59:53;;;;;;;3.28;0.68;;;22.10;1.00;;;;;;4921275;29;20103;-44
2023/08/08 03:02:20;;;;;;;4.38;1.00;;;22.10;1.00;;;;;;4942063;29;20067;-41
2023/08/08 03:04:48;;;;;;;3.50;0.70;;;22.10;1.00;;;;;;4926600;29;20138;-41
2023/08/08 03:07:15;;;;;;;4.70;1.13;;;22.00;1.00;;;;;;4943971;29;20059;-42
2023/08/08 03:09:42;;;;;;;2.55;1.20;;;22.10;1.00;;;;;;4918078;29;20534;-44
2023/08/08 03:12:11;;;;;;;3.33;0.95;;;22.10;1.00;;;;;;4926577;29;20052;-41
2023/08/08 03:14:38;;;;;;;4.43;0.90;;;22.10;1.00;;;;;;4927388;29;20051;-42
2023/08/08 03:17:05;;;;;;;5.13;1.52;;;22.00;1.00;;;;;;4927455;29;20044;-43
2023/08/08 03:19:32;;;;;;;1.65;0.55;;;22.00;1.00;;;;;;4934589;29;20135;-41
2023/08/08 03:22:01;;;;;;;3.65;1.00;;;22.00;1.00;;;;;;4927302;29;20043;-42
2023/08/08 03:24:28;;;;;;;2.05;0.45;;;22.00;1.00;;;;;;4926665;29;20381;-41
2023/08/08 03:26:55;;;;;;;2.13;0.80;;;22.00;1.00;;;;;;4919196;29;20500;-42
2023/08/08 03:29:22;;;;;;;6.70;1.27;;;22.00;1.00;;;;;;4935700;29;20079;-42
2023/08/08 03:31:49;;;;;;;4.63;1.20;;;22.00;1.00;;;;;;4927473;29;20070;-42
2023/08/08 03:34:16;;;;;;;1.83;0.90;;;22.00;1.00;;;;;;4926914;29;20048;-41
2023/08/08 03:36:44;;;;;;;3.85;0.55;;;22.00;1.00;;;;;;4926346;29;20107;-42
2023/08/08 03:39:11;;;;;;;2.22;1.08;;;22.00;1.00;;;;;;4943777;29;20043;-41
2023/08/08 03:41:38;;;;;;;3.75;0.70;;;22.00;1.00;;;;;;4933131;29;20048;-43
2023/08/08 03:44:05;;;;;;;2.70;0.88;;;22.00;1.00;;;;;;4939489;29;20119;-42
2023/08/08 03:46:33;;;;;;;2.65;0.77;;;21.90;1.00;;;;;;4926507;29;20102;-41
2023/08/08 03:49:00;;;;;;;3.38;0.68;;;21.90;1.00;;;;;;4918861;29;20056;-42
2023/08/08 03:51:27;;;;;;;4.70;0.85;;;22.00;1.00;;;;;;4926126;29;20051;-42
2023/08/08 03:53:55;;;;;;;2.05;0.88;;;21.90;1.00;;;;;;4921084;29;20052;-44
2023/08/08 03:56:22;;;;;;;3.67;0.60;;;21.90;1.00;;;;;;4923213;29;20046;-42
2023/08/08 03:58:49;;;;;;;1.88;0.93;;;21.90;1.00;;;;;;4944320;29;20051;-42
2023/08/08 04:01:16;;;;;;;5.95;1.08;;;21.90;1.00;;;;;;4927034;29;20131;-41
2023/08/08 04:03:43;;;;;;;5.68;0.82;;;21.90;1.00;;;;;;4926533;29;20048;-42
2023/08/08 04:06:10;;;;;;;5.25;0.90;;;21.90;1.00;;;;;;4935298;29;20040;-42
2023/08/08 04:08:37;;;;;;;3.53;0.85;;;21.90;1.00;;;;;;4935951;29;20048;-42
2023/08/08 04:11:07;;;;;;;7.50;0.73;;;21.90;1.00;;;;;;4905710;29;20044;-41
2023/08/08 04:13:34;;;;;;;5.07;1.20;;;21.90;1.00;;;;;;4937216;29;20055;-42
2023/08/08 04:16:02;;;;;;;7.03;1.35;;;21.90;1.00;;;;;;4928555;29;20075;-43
2023/08/08 04:18:29;;;;;;;4.85;0.88;;;21.80;1.00;;;;;;4931689;29;20400;-43
2023/08/08 04:20:55;;;;;;;3.53;0.75;;;21.80;1.00;;;;;;4942376;29;20034;-43
2023/08/08 04:23:25;;;;;;;5.35;1.10;;;21.80;1.00;;;;;;4937874;29;20045;-42
2023/08/08 04:25:53;;;;;;;5.57;0.90;;;21.80;1.00;;;;;;4923135;29;20099;-44
2023/08/08 04:28:19;;;;;;;6.65;0.90;;;21.70;1.00;;;;;;4932460;29;20047;-42
2023/08/08 04:30:46;;;;;;;5.70;1.10;;;21.70;1.00;;;;;;4935269;29;20050;-42
2023/08/08 04:33:13;;;;;;;6.18;1.52;;;21.70;1.00;;;;;;4944046;29;20052;-44
2023/08/08 04:35:40;;;;;;;3.40;0.73;;;21.70;1.00;;;;;;4940733;29;20135;-45
2023/08/08 04:38:07;;;;;;;4.05;1.00;;;21.70;1.00;;;;;;4938786;29;20067;-43
2023/08/08 04:40:34;;;;;;;16.20;1.25;;;21.70;1.00;;;;;;4927991;29;20066;-42
2023/08/08 04:43:03;;;;;;;6.78;0.88;;;21.70;1.00;;;;;;4943373;29;20035;-42
2023/08/08 04:45:30;;;;;;;3.75;0.65;;;21.70;1.00;;;;;;4934962;29;20119;-43
2023/08/08 04:47:57;;;;;;;2.55;1.42;;;21.70;1.00;;;;;;4934956;29;20075;-42
2023/08/08 04:50:24;;;;;;;3.88;1.13;;;21.70;1.00;;;;;;4934288;29;20051;-41
2023/08/08 04:52:51;;;;;;;1.70;0.47;;;21.70;1.00;;;;;;4933716;29;20146;-41
2023/08/08 04:55:19;;;;;;;4.78;1.25;;;21.70;1.00;;;;;;4924264;29;20067;-42
2023/08/08 04:57:46;;;;;;;3.65;0.93;;;21.70;1.00;;;;;;4938424;29;20043;-42
2023/08/08 05:00:14;;;;;;;3.30;0.68;;;21.70;1.00;;;;;;4932884;29;20048;-42
2023/08/08 05:02:41;;;;;;;7.57;1.42;;;21.70;1.00;;;;;;4941714;29;20043;-43
2023/08/08 05:05:09;;;;;;;4.25;0.88;;;21.60;1.00;;;;;;4941380;29;20440;-42
2023/08/08 05:07:37;;;;;;;5.30;1.33;;;21.60;1.00;;;;;;4941607;29;20127;-41
2023/08/08 05:10:06;;;;;;;3.10;0.52;;;21.60;1.00;;;;;;4939235;29;20492;-41
2023/08/08 05:12:33;;;;;;;4.13;0.70;;;21.60;1.00;;;;;;4941739;29;20083;-41
2023/08/08 05:15:00;;;;;;;4.53;0.70;;;21.60;1.00;;;;;;4937138;29;20044;-41
2023/08/08 05:17:27;;;;;;;2.40;0.80;;;21.60;1.00;;;;;;4938898;29;20078;-42
2023/08/08 05:19:53;;;;;;;6.05;1.55;;;21.60;1.00;;;;;;4917446;29;20039;-46
2023/08/08 05:22:20;;;;;;;2.85;1.00;;;21.60;1.00;;;;;;4939671;29;20047;-43
2023/08/08 05:24:47;;;;;;;6.55;1.88;;;21.60;1.00;;;;;;4938490;29;20048;-42
2023/08/08 05:27:14;;;;;;;1.88;0.70;;;21.60;1.00;;;;;;4939074;29;20066;-42
2023/08/08 05:29:41;;;;;;;5.07;1.20;;;21.60;1.00;;;;;;4943200;29;20047;-41
2023/08/08 05:32:08;;;;;;;2.38;0.73;;;21.60;1.00;;;;;;4939544;29;20040;-41
2023/08/08 05:34:35;;;;;;;2.67;0.73;;;21.60;1.00;;;;;;4937407;29;20055;-42
2023/08/08 05:37:02;;;;;;;2.90;0.98;;;21.60;1.00;;;;;;4937302;29;20118;-43
2023/08/08 05:39:44;;;;;;;3.53;0.70;;;21.60;1.00;;;;;;4921271;29;20398;-41
2023/08/08 05:42:10;;;;;;;2.08;0.70;;;21.60;1.00;;;;;;4939735;29;20047;-42
2023/08/08 05:44:37;;;;;;;3.70;0.50;;;21.60;1.00;;;;;;4920766;29;20047;-41
2023/08/08 05:47:04;;;;;;;1.95;0.95;;;21.60;1.00;;;;;;4945893;29;20043;-42
2023/08/08 05:49:31;;;;;;;7.38;1.30;;;21.60;1.00;;;;;;4944739;29;20118;-41
2023/08/08 05:51:58;;;;;;;1.75;0.60;;;21.60;1.00;;;;;;4920453;29;20134;-43
2023/08/08 05:54:25;;;;;;;1.92;0.70;;;21.60;1.00;;;;;;4944209;29;20078;-41
2023/08/08 05:56:52;;;;;;;2.13;0.80;;;21.60;1.00;;;;;;4929630;29;20492;-41
2023/08/08 05:59:19;;;;;;;2.10;1.40;;;21.60;1.00;;;;;;4945129;29;20075;-46
2023/08/08 06:01:46;;;;;;;2.15;0.60;;;21.60;1.00;;;;;;4944629;29;20123;-42
2023/08/08 06:04:13;;;;;;;4.60;1.58;;;21.60;1.00;;;;;;4945466;29;20046;-41
2023/08/08 06:06:41;;;;;;;1.85;0.55;;;21.60;1.00;;;;;;4935892;29;20040;-42
2023/08/08 06:09:08;;;;;;;2.13;0.68;;;21.60;1.00;;;;;;4943315;29;20038;-42
2023/08/08 06:11:35;;;;;;;2.30;0.57;;;21.60;1.00;;;;;;4928340;29;20076;-42
2023/08/08 06:14:02;;;;;;;2.13;0.40;;;21.60;1.00;;;;;;4944685;29;20040;-43
2023/08/08 06:16:29;;;;;;;2.65;0.45;;;21.60;1.00;;;;;;4943924;29;20040;-41
2023/08/08 06:18:56;;;;;;;3.13;0.90;;;21.60;1.00;;;;;;4944476;29;20127;-44
2023/08/08 06:21:23;;;;;;;5.10;0.70;;;21.60;1.00;;;;;;4932095;29;20071;-41
2023/08/08 06:23:52;;;;;;;2.45;0.80;;;21.60;1.00;;;;;;4940575;29;20044;-43
2023/08/08 06:26:20;;;;;;;4.72;0.63;;;21.60;1.00;;;;;;4939687;29;20047;-41
2023/08/08 06:28:47;;;;;;;1.63;0.80;;;21.60;1.00;;;;;;4937211;29;20103;-42
2023/08/08 06:31:15;;;;;;;2.85;0.70;;;21.60;1.00;;;;;;4944518;29;20103;-42
2023/08/08 06:33:41;;;;;;;4.68;0.70;;;21.60;1.00;;;;;;4943914;29;20099;-43
2023/08/08 06:36:08;;;;;;;1.50;0.60;;;21.60;1.00;;;;;;4942423;29;20583;-46
2023/08/08 06:38:35;;;;;;;4.55;0.52;;;21.60;1.00;;;;;;4941156;29;20048;-46
2023/08/08 06:41:05;;;;;;;2.47;0.65;;;21.60;1.00;;;;;;4920218;29;20102;-44
2023/08/08 06:43:32;;;;;;;1.80;0.35;;;21.60;1.00;;;;;;4944539;29;20047;-41
2023/08/08 06:45:59;;;;;;;3.53;0.65;;;21.60;1.00;;;;;;4943344;29;20039;-44
2023/08/08 06:48:26;;;;;;;4.50;1.92;;;21.60;1.00;;;;;;4927330;29;20052;-42
2023/08/08 06:50:53;;;;;;;3.63;0.60;;;21.60;1.00;;;;;;4918769;29;20062;-42
2023/08/08 06:53:20;;;;;;;2.15;0.50;;;21.60;1.00;;;;;;4936886;29;20047;-44
2023/08/08 06:55:47;;;;;;;3.35;0.90;;;21.60;1.00;;;;;;4939386;29;20086;-42
2023/08/08 06:58:13;;;;;;;5.35;1.15;;;21.60;1.00;;;;;;4937400;29;20423;-44
2023/08/08 07:00:40;;;;;;;2.60;0.57;;;21.60;1.00;;;;;;4935757;29;20167;-42
2023/08/08 07:03:07;;;;;;;2.85;0.60;;;21.60;1.00;;;;;;4926003;29;20075;-41
2023/08/08 07:05:34;;;;;;;2.25;0.60;;;21.60;1.00;;;;;;4927435;29;20504;-44
2023/08/08 07:08:01;;;;;;;7.82;1.77;;;21.60;1.00;;;;;;4927600;29;20044;-42
2023/08/08 07:10:28;;;;;;;2.70;0.52;;;21.60;1.00;;;;;;4943373;29;20044;-41
2023/08/08 07:12:55;;;;;;;1.45;0.73;;;21.60;1.00;;;;;;4942678;29;20111;-41
2023/08/08 07:15:21;;;;;;;1.73;0.60;;;21.60;1.00;;;;;;4942744;29;20491;-41
2023/08/08 07:17:49;;;;;;;3.67;0.70;;;21.60;1.00;;;;;;4943304;29;20040;-41
2023/08/08 07:20:17;;;;;;;4.18;0.75;;;21.60;1.00;;;;;;4937531;29;20453;-42
2023/08/08 07:22:44;;;;;;;1.42;0.45;;;21.60;1.00;;;;;;4940744;29;20131;-42
2023/08/08 07:25:11;;;;;;;2.17;0.82;;;21.60;1.00;;;;;;4941155;29;20464;-42
2023/08/08 07:27:38;;;;;;;6.00;0.70;;;21.60;1.00;;;;;;4943526;29;20126;-41
2023/08/08 07:30:06;;;;;;;4.03;1.35;;;21.70;1.00;;;;;;4942683;29;20062;-41
2023/08/08 07:32:34;;;;;;;3.97;0.77;;;21.70;1.00;;;;;;4934775;29;20051;-42
2023/08/08 07:35:02;;;;;;;1.75;0.60;;;21.70;1.00;;;;;;4942096;29;20379;-41
2023/08/08 07:37:29;;;;;;;2.40;0.68;;;21.70;1.00;;;;;;4933622;29;20036;-41
2023/08/08 07:39:56;;;;;;;1.50;0.65;;;21.70;1.00;;;;;;4942801;29;20054;-42
2023/08/08 07:42:23;;;;;;;2.33;1.35;;;21.70;1.00;;;;;;4942052;29;20043;-41
2023/08/08 07:44:50;;;;;;;2.47;1.00;;;21.70;1.00;;;;;;4941341;29;20100;-44
2023/08/08 07:47:16;;;;;;;3.92;0.47;;;21.70;1.00;;;;;;4933964;29;20103;-42
2023/08/08 07:49:43;;;;;;;2.03;0.70;;;21.70;1.00;;;;;;4933935;29;20048;-42
2023/08/08 07:52:10;;;;;;;2.42;0.90;;;21.70;1.00;;;;;;4942198;29;20051;-42
2023/08/08 07:54:37;;;;;;;1.95;0.80;;;21.70;1.00;;;;;;4933338;29;20055;-44
2023/08/08 07:57:04;;;;;;;3.35;0.98;;;21.70;1.00;;;;;;4921305;29;20074;-41
2023/08/08 07:59:30;;;;;;;3.80;0.73;;;21.70;1.00;;;;;;4942404;29;20047;-44
2023/08/08 08:01:57;;;;;;;4.30;1.02;;;21.70;1.00;;;;;;4925628;29;20052;-42
2023/08/08 08:04:24;;;;;;;2.33;0.75;;;21.70;1.00;;;;;;4942170;29;20055;-44
2023/08/08 08:06:52;;;;;;;1.92;0.47;;;21.70;1.00;;;;;;4942130;29;20071;-41
2023/08/08 08:09:19;;;;;;;2.08;0.70;;;21.70;1.00;;;;;;4925061;29;20054;-41
2023/08/08 08:11:46;;;;;;;4.40;1.48;;;21.70;1.00;;;;;;4916627;29;20115;-41
2023/08/08 08:14:13;;;;;;;1.75;0.63;;;21.70;1.00;;;;;;4937294;29;20082;-43
2023/08/08 08:16:39;;;;;;;3.38;0.88;;;21.80;1.00;;;;;;4938064;29;20078;-42
2023/08/08 08:19:06;;;;;;;4.32;0.70;;;21.80;1.00;;;;;;4941699;29;20110;-42
2023/08/08 08:21:34;;;;;;;4.70;0.77;;;21.80;1.00;;;;;;4941639;29;20043;-42
2023/08/08 08:24:02;;;;;;;2.17;0.70;;;21.80;1.00;;;;;;4931690;29;20103;-41
2023/08/08 08:26:28;;;;;;;5.20;1.10;;;21.80;1.00;;;;;;4939651;29;20044;-44
2023/08/08 08:28:55;;;;;;;3.17;0.52;;;21.90;1.00;;;;;;4938304;29;20139;-45
2023/08/08 08:31:22;;;;;;;2.67;0.95;;;21.90;1.00;;;;;;4940380;29;20078;-44
2023/08/08 08:33:49;;;;;;;2.80;0.20;;;21.90;1.00;;;;;;4940938;29;20129;-44
2023/08/08 08:36:16;;;;;;;1.50;0.52;;;21.90;1.00;;;;;;4923159;29;20063;-42
2023/08/08 08:38:43;;;;;;;5.03;0.65;;;21.90;1.00;;;;;;4932346;29;20115;-42
2023/08/08 08:41:13;;;;;;;3.10;0.65;;;21.90;1.00;;;;;;4929700;29;20076;-41
2023/08/08 08:43:40;;;;;;;6.53;1.13;;;22.00;1.00;;;;;;4920382;29;20052;-42
2023/08/08 08:46:10;;;;;;;5.13;1.05;;;22.00;1.00;;;;;;4925388;29;20039;-41
2023/08/08 08:48:37;;;;;;;1.55;0.70;;;22.00;1.00;;;;;;4933820;29;20048;-42
2023/08/08 08:51:03;;;;;;;5.43;0.90;;;22.00;1.00;;;;;;4940740;29;20130;-43
2023/08/08 08:53:30;;;;;;;2.25;0.65;;;22.00;1.00;;;;;;4941763;29;20050;-41
2023/08/08 08:55:58;;;;;;;6.00;0.63;;;22.00;1.00;;;;;;4922927;29;20048;-44
2023/08/08 08:58:25;;;;;;;2.63;0.60;;;22.00;1.00;;;;;;4924232;29;20075;-43
2023/08/08 09:00:53;;;;;;;4.82;1.30;;;22.00;1.00;;;;;;4939646;29;20039;-42
2023/08/08 09:03:20;;;;;;;3.95;0.77;;;22.00;1.00;;;;;;4924534;29;20043;-41
2023/08/08 09:05:48;;;;;;;2.63;1.02;;;22.10;1.00;;;;;;4940970;29;20052;-45
2023/08/08 09:08:15;;;;;;;3.60;0.90;;;22.10;1.00;;;;;;4940557;29;20079;-42
2023/08/08 09:10:42;;;;;;;5.38;1.10;;;22.10;1.00;;;;;;4940611;29;20058;-44
2023/08/08 09:13:09;;;;;;;4.40;1.20;;;22.10;1.00;;;;;;4940973;29;20047;-42
2023/08/08 09:15:36;;;;;;;5.53;1.02;;;22.10;1.00;;;;;;4932589;29;20125;-43
2023/08/08 09:18:03;;;;;;;7.38;1.55;;;22.10;1.00;;;;;;4932971;29;20064;-45
2023/08/08 09:20:30;;;;;;;1.38;1.00;;;22.10;1.00;;;;;;4934708;29;20087;-42
2023/08/08 09:22:57;;;;;;;1.40;0.52;;;22.20;1.00;;;;;;4939422;29;20046;-42
2023/08/08 09:25:25;;;;;;;1.63;0.35;;;22.20;1.00;;;;;;4938078;29;20044;-41
2023/08/08 09:27:55;;;;;;;5.03;0.75;;;22.20;1.00;;;;;;4932379;29;20047;-41
2023/08/08 09:30:22;;;;;;;4.22;0.47;;;22.20;1.00;;;;;;4920904;29;20133;-43
2023/08/08 09:32:49;;;;;;;2.13;0.52;;;22.20;1.00;;;;;;4938618;29;20056;-42
2023/08/08 09:35:16;;;;;;;4.10;0.95;;;22.20;1.00;;;;;;4933567;29;20056;-41
2023/08/08 09:37:43;;;;;;;2.15;1.08;;;22.30;1.00;;;;;;4940506;29;20059;-45
2023/08/08 09:40:11;;;;;;;3.75;0.90;;;22.20;1.00;;;;;;4932459;29;20385;-44
2023/08/08 09:42:39;;;;;;;4.38;1.17;;;22.30;1.00;;;;;;4915757;29;20049;-45
2023/08/08 09:45:09;;;;;;;3.95;0.60;;;22.30;1.00;;;;;;4921863;29;20416;-42
2023/08/08 09:47:37;;;;;;;4.43;0.70;;;22.30;1.00;;;;;;4923265;29;20059;-43
2023/08/08 09:50:05;;;;;;;3.83;0.65;;;22.30;1.00;;;;;;4923469;29;20052;-42
2023/08/08 09:52:38;;;;;;;3.78;0.68;;;22.30;1.00;;;;;;4940608;29;20071;-46
2023/08/08 09:55:06;;;;;;;4.13;1.23;;;22.30;1.00;;;;;;4939375;29;20046;-41
2023/08/08 09:57:34;;;;;;;4.25;0.80;;;22.30;1.00;;;;;;4939835;29;20056;-45
2023/08/08 10:00:04;;;;;;;2.65;0.90;;;22.30;1.00;;;;;;4939502;29;20044;-42
2023/08/08 10:02:32;;;;;;;3.30;0.80;;;22.30;1.00;;;;;;4940826;29;20054;-43
2023/08/08 10:05:01;;;;;;;2.40;0.68;;;22.30;1.00;;;;;;4941641;29;20044;-42
2023/08/08 10:07:27;;;;;;;2.38;0.60;;;22.30;1.00;;;;;;4941360;29;20052;-43
2023/08/08 10:09:54;;;;;;;4.47;1.02;;;22.30;1.00;;;;;;4941290;29;20064;-44
2023/08/08 10:12:25;;;;;;;5.00;1.00;;;22.30;1.00;;;;;;4937188;29;20052;-42
2023/08/08 10:14:52;;;;;;;3.38;1.58;;;22.30;1.00;;;;;;4915627;29;20055;-42
2023/08/08 10:17:19;;;;;;;2.25;0.70;;;22.30;1.00;;;;;;4943710;29;20044;-42
2023/08/08 10:19:56;;;;;;;2.70;1.20;;;22.30;1.00;;;;;;4945137;29;20069;-45
2023/08/08 10:22:24;;;;;;;7.10;1.30;;;22.30;1.00;;;;;;4937716;29;20040;-45
2023/08/08 10:24:53;;;;;;;6.78;1.73;;;22.40;1.00;;;;;;4936839;29;20047;-42
2023/08/08 10:27:34;;;;;;;3.10;1.13;;;22.40;1.00;;;;;;4928326;29;20142;-43
2023/08/08 10:30:09;;;;;;;4.20;1.00;;;22.40;1.00;;;;;;4926410;29;20043;-43
2023/08/08 10:32:57;;;;;;;4.38;0.70;;;22.40;1.00;;;;;;4906034;29;20062;-49
2023/08/08 10:35:36;;;;;;;5.45;1.17;;;22.40;1.00;;;;;;4943022;29;20043;-42
2023/08/08 10:38:08;;;;;;;3.17;0.75;;;22.40;1.00;;;;;;4944787;29;20104;-42
2023/08/08 10:40:37;;;;;;;4.55;0.98;;;22.40;1.00;;;;;;4944368;29;20044;-43
2023/08/08 10:43:11;;;;;;;5.03;0.63;;;22.40;1.00;;;;;;4944062;29;20051;-44
2023/08/08 10:45:43;;;;;;;2.88;1.17;;;22.40;1.00;;;;;;4936716;29;20052;-43
2023/08/08 10:48:10;;;;;;;5.25;0.80;;;22.40;1.00;;;;;;4935594;29;20044;-42
2023/08/08 10:50:40;;;;;;;3.35;0.70;;;22.40;1.00;;;;;;4942690;29;20537;-44
2023/08/08 10:53:12;;;;;;;4.63;0.93;;;22.40;1.00;;;;;;4934804;29;20503;-44
2023/08/08 10:55:39;;;;;;;2.92;0.80;;;22.40;1.00;;;;;;4917544;29;20079;-42
2023/08/08 10:58:12;;;;;;;2.80;0.85;;;22.40;1.00;;;;;;4934619;29;20048;-43
2023/08/08 11:00:40;;;;;;;3.33;1.00;;;22.40;1.00;;;;;;4942793;29;20068;-44
2023/08/08 11:03:08;;;;;;;3.92;0.57;;;22.40;1.00;;;;;;4943607;29;20048;-43
2023/08/08 11:05:37;;;;;;;2.35;0.70;;;22.40;1.00;;;;;;4942597;29;20043;-42
2023/08/08 11:08:05;;;;;;;2.22;0.68;;;22.40;1.00;;;;;;4926069;29;20036;-41
2023/08/08 11:10:36;;;;;;;2.03;0.80;;;22.40;1.00;;;;;;4925963;29;20106;-43
2023/08/08 11:13:05;;;;;;;3.38;1.13;;;22.50;1.00;;;;;;4942140;29;20035;-41
2023/08/08 11:15:34;;;;;;;3.33;1.25;;;22.50;1.00;;;;;;4930580;29;20119;-44
2023/08/08 11:18:02;;;;;;;3.47;0.90;;;22.50;1.00;;;;;;4940099;29;20083;-43
2023/08/08 11:20:32;;;;;;;5.80;1.58;;;22.50;1.00;;;;;;4943220;29;20051;-45
2023/08/08 11:22:59;;;;;;;3.15;0.90;;;22.50;1.00;;;;;;4945648;29;20040;-44
2023/08/08 11:25:28;;;;;;;5.75;0.77;;;22.50;1.00;;;;;;4937481;29;20054;-42
2023/08/08 11:27:56;;;;;;;2.53;0.80;;;22.50;1.00;;;;;;4920351;29;20432;-43
2023/08/08 11:30:27;;;;;;;1.77;0.75;;;22.50;1.00;;;;;;4930973;29;20048;-43
2023/08/08 11:32:54;;;;;;;5.15;0.82;;;22.50;1.00;;;;;;4915620;29;20058;-43
2023/08/08 11:35:25;;;;;;;2.13;0.70;;;22.50;1.00;;;;;;4918166;29;20118;-42
2023/08/08 11:37:53;;;;;;;1.17;0.40;;;22.50;1.00;;;;;;4908989;29;20040;-42
2023/08/08 11:40:23;;;;;;;2.40;0.75;;;22.50;1.00;;;;;;4930560;29;20103;-42
2023/08/08 11:42:51;;;;;;;4.20;1.35;;;22.50;1.00;;;;;;4936998;29;20040;-42
2023/08/08 11:45:19;;;;;;;1.92;0.63;;;22.50;1.00;;;;;;4932941;29;20047;-44
2023/08/08 11:47:50;;;;;;;5.18;1.50;;;22.50;1.00;;;;;;4924749;29;20044;-43
2023/08/08 11:50:20;;;;;;;3.40;0.90;;;22.40;1.00;;;;;;4932524;29;20138;-42
2023/08/08 11:52:47;;;;;;;8.45;1.85;;;22.50;1.00;;;;;;4941160;29;20052;-43
2023/08/08 11:55:14;;;;;;;2.90;0.98;;;22.50;1.00;;;;;;4900636;29;20051;-42
2023/08/08 11:57:40;;;;;;;3.42;0.70;;;22.50;1.00;;;;;;4940808;29;20503;-42
2023/08/08 12:00:12;;;;;;;3.95;0.90;;;22.50;1.00;;;;;;4932394;29;20072;-44
2023/08/08 12:02:43;;;;;;;5.68;1.45;;;22.50;1.00;;;;;;4919328;29;20445;-44
2023/08/08 12:05:17;;;;;;;4.30;1.38;;;22.50;1.00;;;;;;4933316;29;20131;-45
2023/08/08 12:07:45;;;;;;;2.60;1.15;;;22.50;1.00;;;;;;4936027;29;20075;-42
2023/08/08 12:10:18;;;;;;;1.55;0.50;;;22.50;1.00;;;;;;4940147;29;20072;-43
2023/08/08 12:12:51;;;;;;;5.50;1.00;;;22.50;1.00;;;;;;4942508;29;20048;-42
2023/08/08 12:15:20;;;;;;;4.07;1.27;;;22.50;1.00;;;;;;4924523;29;20055;-45
2023/08/08 12:17:46;;;;;;;4.78;1.05;;;22.50;1.00;;;;;;4925124;29;20118;-46
2023/08/08 12:20:15;;;;;;;5.53;1.65;;;22.50;1.00;;;;;;4933687;29;20050;-42
2023/08/08 12:22:42;;;;;;;5.97;0.95;;;22.50;1.00;;;;;;4917580;29;20075;-43
2023/08/08 12:25:09;;;;;;;2.58;0.80;;;22.50;1.00;;;;;;4932353;29;20127;-42
2023/08/08 12:27:36;;;;;;;4.60;1.08;;;22.50;1.00;;;;;;4934655;29;20083;-45
2023/08/08 12:30:03;;;;;;;2.60;0.93;;;22.50;1.00;;;;;;4933426;29;20044;-43
2023/08/08 12:32:31;;;;;;;2.22;0.93;;;22.50;1.00;;;;;;4933060;29;20315;-45
2023/08/08 12:34:58;;;;;;;2.97;1.30;;;22.50;1.00;;;;;;4939680;29;20058;-48
2023/08/08 12:37:25;;;;;;;3.08;0.77;;;22.50;1.00;;;;;;4938727;29;20115;-44
2023/08/08 12:39:52;;;;;;;4.78;1.20;;;22.50;1.00;;;;;;4938562;29;20071;-48
2023/08/08 12:42:19;;;;;;;3.33;0.73;;;22.50;1.00;;;;;;4939433;29;20075;-44
2023/08/08 12:44:46;;;;;;;2.15;0.75;;;22.40;1.00;;;;;;4922654;29;20043;-42
2023/08/08 12:47:14;;;;;;;2.58;0.40;;;22.50;1.00;;;;;;4922117;29;20087;-47
2023/08/08 12:49:42;;;;;;;5.22;1.05;;;22.50;1.00;;;;;;4939730;29;20047;-42
2023/08/08 12:52:09;;;;;;;4.15;0.82;;;22.40;1.00;;;;;;4924758;29;20480;-40
2023/08/08 12:54:36;;;;;;;2.95;0.73;;;22.50;1.00;;;;;;4934910;29;20047;-44
2023/08/08 12:57:03;;;;;;;2.50;0.95;;;22.50;1.00;;;;;;4939970;29;20122;-43
2023/08/08 12:59:30;;;;;;;2.10;0.52;;;22.40;1.00;;;;;;4925241;29;20103;-42
2023/08/08 13:01:57;;;;;;;3.83;0.85;;;22.50;1.00;;;;;;4934122;29;20050;-42